createdAt,value
2017-01-09T00:00:02.831Z,24.77
2017-01-09T00:00:17.671Z,24.7
2017-01-09T00:00:32.516Z,24.74
2017-01-09T00:00:47.316Z,24.74
2017-01-09T00:01:02.108Z,24.67
2017-01-09T00:01:16.941Z,24.75
2017-01-09T00:01:31.721Z,24.7
2017-01-09T00:01:46.541Z,24.82
2017-01-09T00:02:01.434Z,24.67
2017-01-09T00:02:16.246Z,24.71
2017-01-09T00:02:31.049Z,24.75
2017-01-09T00:02:45.889Z,24.74
2017-01-09T00:03:00.869Z,24.77
2017-01-09T00:03:15.665Z,24.7
2017-01-09T00:03:30.445Z,24.78
2017-01-09T00:03:45.320Z,24.74
2017-01-09T00:04:00.150Z,24.71
2017-01-09T00:04:14.891Z,24.74
2017-01-09T00:04:29.732Z,24.77
2017-01-09T00:04:44.562Z,24.74
2017-01-09T00:04:59.409Z,24.78
2017-01-09T00:05:14.252Z,24.83
2017-01-09T00:05:28.985Z,24.86
2017-01-09T00:05:43.780Z,24.82
2017-01-09T00:05:58.595Z,24.85
2017-01-09T00:06:13.564Z,24.86
2017-01-09T00:06:28.266Z,24.87
2017-01-09T00:06:43.058Z,24.93
2017-01-09T00:06:57.835Z,24.94
2017-01-09T00:07:12.662Z,24.92
2017-01-09T00:07:27.474Z,24.94
2017-01-09T00:07:42.236Z,25.04
2017-01-09T00:07:57.027Z,25.08
2017-01-09T00:08:11.878Z,25.02
2017-01-09T00:08:26.695Z,25.07
2017-01-09T00:08:41.572Z,25.11
2017-01-09T00:08:56.515Z,25.14
2017-01-09T00:09:11.299Z,25.11
2017-01-09T00:09:26.080Z,25.09
2017-01-09T00:09:40.852Z,25.07
2017-01-09T00:09:55.708Z,25.09
2017-01-09T00:10:10.488Z,25.09
2017-01-09T00:10:25.321Z,25.14
2017-01-09T00:10:40.103Z,25.08
2017-01-09T00:10:54.938Z,25.11
2017-01-09T00:11:09.718Z,25.02
2017-01-09T00:11:24.476Z,25.05
2017-01-09T00:11:39.258Z,25.08
2017-01-09T00:11:53.971Z,25.08
2017-01-09T00:12:08.846Z,25.07
2017-01-09T00:12:23.623Z,25.07
2017-01-09T00:12:38.388Z,25.04
2017-01-09T00:12:53.188Z,25.04
2017-01-09T00:13:07.977Z,25
2017-01-09T00:13:22.848Z,25.01
2017-01-09T00:13:37.686Z,24.96
2017-01-09T00:13:52.426Z,24.94
2017-01-09T00:14:07.242Z,24.96
2017-01-09T00:14:22.084Z,24.9
2017-01-09T00:14:36.869Z,24.93
2017-01-09T00:14:51.682Z,24.97
2017-01-09T00:15:06.544Z,24.94
2017-01-09T00:15:21.325Z,24.93
2017-01-09T00:15:36.144Z,24.85
2017-01-09T00:15:50.986Z,24.86
2017-01-09T00:16:05.768Z,24.82
2017-01-09T00:16:20.660Z,24.82
2017-01-09T00:16:35.541Z,24.77
2017-01-09T00:16:50.416Z,24.82
2017-01-09T00:17:05.242Z,24.83
2017-01-09T00:17:20.020Z,24.83
2017-01-09T00:17:34.812Z,24.86
2017-01-09T00:17:49.619Z,24.85
2017-01-09T00:18:04.467Z,24.82
2017-01-09T00:18:19.269Z,24.82
2017-01-09T00:18:34.083Z,24.87
2017-01-09T00:18:48.825Z,24.86
2017-01-09T00:19:03.661Z,24.85
2017-01-09T00:19:18.473Z,24.83
2017-01-09T00:19:33.312Z,24.82
2017-01-09T00:19:48.154Z,24.9
2017-01-09T00:20:03.488Z,24.86
2017-01-09T00:20:18.393Z,24.85
2017-01-09T00:20:33.153Z,24.94
2017-01-09T00:20:48.005Z,24.96
2017-01-09T00:21:02.829Z,24.93
2017-01-09T00:21:17.954Z,24.8
2017-01-09T00:21:32.712Z,24.83
2017-01-09T00:21:47.547Z,24.87
2017-01-09T00:22:02.314Z,24.92
2017-01-09T00:22:17.179Z,24.87
2017-01-09T00:22:32.018Z,24.83
2017-01-09T00:22:46.900Z,24.83
2017-01-09T00:23:01.739Z,24.82
2017-01-09T00:23:16.568Z,24.85
2017-01-09T00:23:31.346Z,24.85
2017-01-09T00:23:46.130Z,24.83
2017-01-09T00:24:01.160Z,24.83
2017-01-09T00:24:15.938Z,24.85
2017-01-09T00:24:30.699Z,24.93
2017-01-09T00:24:45.634Z,24.92
2017-01-09T00:25:00.449Z,24.93
2017-01-09T00:25:15.330Z,24.92
2017-01-09T00:25:30.179Z,24.94
2017-01-09T00:25:45.049Z,24.92
2017-01-09T00:25:59.851Z,24.97
2017-01-09T00:26:14.613Z,24.94
2017-01-09T00:26:29.370Z,24.92
2017-01-09T00:26:44.182Z,24.87
2017-01-09T00:26:59.029Z,24.94
2017-01-09T00:27:13.881Z,24.93
2017-01-09T00:27:28.689Z,24.93
2017-01-09T00:27:43.489Z,24.96
2017-01-09T00:27:58.280Z,24.96
2017-01-09T00:28:13.150Z,24.93
2017-01-09T00:28:28.057Z,24.85
2017-01-09T00:28:42.787Z,24.97
2017-01-09T00:28:57.559Z,24.92
2017-01-09T00:29:12.419Z,24.92
2017-01-09T00:29:27.239Z,24.83
2017-01-09T00:29:42.006Z,24.86
2017-01-09T00:29:56.754Z,24.87
2017-01-09T00:30:11.567Z,24.93
2017-01-09T00:30:26.447Z,24.87
2017-01-09T00:30:41.333Z,24.83
2017-01-09T00:30:56.139Z,24.8
2017-01-09T00:31:11.096Z,24.8
2017-01-09T00:31:25.903Z,24.78
2017-01-09T00:31:40.706Z,24.8
2017-01-09T00:31:55.534Z,24.83
2017-01-09T00:32:10.305Z,24.83
2017-01-09T00:32:25.248Z,24.83
2017-01-09T00:32:40.062Z,24.83
2017-01-09T00:32:54.923Z,24.86
2017-01-09T00:33:09.783Z,24.89
2017-01-09T00:33:24.576Z,24.85
2017-01-09T00:33:39.402Z,24.82
2017-01-09T00:33:54.205Z,24.86
2017-01-09T00:34:09.030Z,24.83
2017-01-09T00:34:23.895Z,24.83
2017-01-09T00:34:38.650Z,24.85
2017-01-09T00:34:53.511Z,24.87
2017-01-09T00:35:08.322Z,24.83
2017-01-09T00:35:23.059Z,24.85
2017-01-09T00:35:37.920Z,24.83
2017-01-09T00:35:52.695Z,24.87
2017-01-09T00:36:07.512Z,24.83
2017-01-09T00:36:22.357Z,24.86
2017-01-09T00:36:37.484Z,24.85
2017-01-09T00:36:52.329Z,24.8
2017-01-09T00:37:07.142Z,24.82
2017-01-09T00:37:21.964Z,24.85
2017-01-09T00:37:36.746Z,24.9
2017-01-09T00:37:51.481Z,24.83
2017-01-09T00:38:06.292Z,24.92
2017-01-09T00:38:21.168Z,24.82
2017-01-09T00:38:35.965Z,24.85
2017-01-09T00:38:50.747Z,24.78
2017-01-09T00:39:05.562Z,24.85
2017-01-09T00:39:20.362Z,24.86
2017-01-09T00:39:35.178Z,24.83
2017-01-09T00:39:50.004Z,24.87
2017-01-09T00:40:04.781Z,24.86
2017-01-09T00:40:19.650Z,24.9
2017-01-09T00:40:34.529Z,24.83
2017-01-09T00:40:49.339Z,24.9
2017-01-09T00:41:04.106Z,24.86
2017-01-09T00:41:18.926Z,24.83
2017-01-09T00:41:33.722Z,24.9
2017-01-09T00:41:48.495Z,24.89
2017-01-09T00:42:03.380Z,24.94
2017-01-09T00:42:18.186Z,24.94
2017-01-09T00:42:33.049Z,24.96
2017-01-09T00:42:47.822Z,24.97
2017-01-09T00:43:02.613Z,24.97
2017-01-09T00:43:17.354Z,24.94
2017-01-09T00:43:32.186Z,24.92
2017-01-09T00:43:47.059Z,24.97
2017-01-09T00:44:01.903Z,25.08
2017-01-09T00:44:16.746Z,24.97
2017-01-09T00:44:31.504Z,25.01
2017-01-09T00:44:46.318Z,24.96
2017-01-09T00:45:01.162Z,25.05
2017-01-09T00:45:15.974Z,24.97
2017-01-09T00:45:30.762Z,25
2017-01-09T00:45:45.581Z,24.94
2017-01-09T00:46:01.012Z,24.97
2017-01-09T00:46:15.827Z,24.97
2017-01-09T00:46:30.634Z,24.92
2017-01-09T00:46:45.407Z,24.93
2017-01-09T00:47:00.287Z,24.96
2017-01-09T00:47:15.155Z,24.94
2017-01-09T00:47:30.005Z,24.94
2017-01-09T00:47:44.842Z,24.94
2017-01-09T00:47:59.697Z,24.96
2017-01-09T00:48:14.504Z,24.94
2017-01-09T00:48:29.336Z,24.93
2017-01-09T00:48:44.110Z,25.01
2017-01-09T00:48:58.948Z,24.97
2017-01-09T00:49:13.806Z,24.96
2017-01-09T00:49:28.619Z,24.93
2017-01-09T00:49:43.411Z,24.94
2017-01-09T00:49:58.220Z,24.94
2017-01-09T00:50:13.082Z,24.92
2017-01-09T00:50:27.931Z,24.97
2017-01-09T00:50:42.760Z,24.94
2017-01-09T00:50:57.574Z,24.92
2017-01-09T00:51:12.411Z,24.94
2017-01-09T00:51:27.197Z,24.82
2017-01-09T00:51:42.266Z,24.92
2017-01-09T00:51:57.058Z,24.85
2017-01-09T00:52:11.807Z,24.94
2017-01-09T00:52:26.618Z,24.93
2017-01-09T00:52:41.427Z,24.97
2017-01-09T00:52:56.256Z,24.93
2017-01-09T00:53:11.036Z,24.97
2017-01-09T00:53:25.793Z,24.96
2017-01-09T00:53:40.542Z,24.96
2017-01-09T00:53:55.349Z,25
2017-01-09T00:54:10.152Z,25.04
2017-01-09T00:54:24.917Z,25.05
2017-01-09T00:54:39.651Z,25.02
2017-01-09T00:54:54.417Z,25.05
2017-01-09T00:55:09.201Z,25.02
2017-01-09T00:55:24.083Z,25.04
2017-01-09T00:55:38.901Z,25.07
2017-01-09T00:55:53.659Z,25.12
2017-01-09T00:56:08.418Z,25.04
2017-01-09T00:56:23.219Z,25.04
2017-01-09T00:56:38.050Z,25.04
2017-01-09T00:56:52.885Z,25.09
2017-01-09T00:57:07.722Z,25.09
2017-01-09T00:57:22.513Z,25.08
2017-01-09T00:57:37.363Z,25.07
2017-01-09T00:57:52.105Z,25.04
2017-01-09T00:58:06.888Z,25.08
2017-01-09T00:58:21.734Z,25.12
2017-01-09T00:58:36.583Z,25.08
2017-01-09T00:58:51.408Z,25.12
2017-01-09T00:59:06.196Z,25.07
2017-01-09T00:59:21.046Z,25.01
2017-01-09T00:59:35.870Z,25.08
2017-01-09T00:59:50.752Z,25.07
2017-01-09T01:00:05.497Z,25.04
2017-01-09T01:00:20.272Z,25.09
2017-01-09T01:00:35.103Z,25.04
2017-01-09T01:00:49.939Z,25.01
2017-01-09T01:01:04.854Z,24.96
2017-01-09T01:01:19.672Z,24.94
2017-01-09T01:01:34.483Z,24.93
2017-01-09T01:01:49.272Z,24.93
2017-01-09T01:02:04.084Z,25
2017-01-09T01:02:19.113Z,24.92
2017-01-09T01:02:33.929Z,24.94
2017-01-09T01:02:48.674Z,24.89
2017-01-09T01:03:03.496Z,24.94
2017-01-09T01:03:18.350Z,24.92
2017-01-09T01:03:33.122Z,24.82
2017-01-09T01:03:47.945Z,24.92
2017-01-09T01:04:02.873Z,24.93
2017-01-09T01:04:17.789Z,24.83
2017-01-09T01:04:32.612Z,24.89
2017-01-09T01:04:47.470Z,24.82
2017-01-09T01:05:02.290Z,24.78
2017-01-09T01:05:17.081Z,24.86
2017-01-09T01:05:31.904Z,24.83
2017-01-09T01:05:46.711Z,24.82
2017-01-09T01:06:01.513Z,24.8
2017-01-09T01:06:16.503Z,24.83
2017-01-09T01:06:31.240Z,24.89
2017-01-09T01:06:46.411Z,24.8
2017-01-09T01:07:01.179Z,24.85
2017-01-09T01:07:15.985Z,24.85
2017-01-09T01:07:30.830Z,24.8
2017-01-09T01:07:45.628Z,24.75
2017-01-09T01:08:00.518Z,24.82
2017-01-09T01:08:15.363Z,24.85
2017-01-09T01:08:30.158Z,24.83
2017-01-09T01:08:44.933Z,24.82
2017-01-09T01:08:59.793Z,24.83
2017-01-09T01:09:14.700Z,24.82
2017-01-09T01:09:29.570Z,24.75
2017-01-09T01:09:44.382Z,24.83
2017-01-09T01:09:59.200Z,24.87
2017-01-09T01:10:14.078Z,24.87
2017-01-09T01:10:29.092Z,24.83
2017-01-09T01:10:43.901Z,24.8
2017-01-09T01:10:58.721Z,24.87
2017-01-09T01:11:13.482Z,24.8
2017-01-09T01:11:28.372Z,24.89
2017-01-09T01:11:43.166Z,24.86
2017-01-09T01:11:57.995Z,24.83
2017-01-09T01:12:12.867Z,24.86
2017-01-09T01:12:27.707Z,24.83
2017-01-09T01:12:42.534Z,24.82
2017-01-09T01:12:57.402Z,24.86
2017-01-09T01:13:12.239Z,24.83
2017-01-09T01:13:27.007Z,24.83
2017-01-09T01:13:41.756Z,24.86
2017-01-09T01:13:56.526Z,24.8
2017-01-09T01:14:11.372Z,24.83
2017-01-09T01:14:26.219Z,24.86
2017-01-09T01:14:41.111Z,24.82
2017-01-09T01:14:56.043Z,24.86
2017-01-09T01:15:10.884Z,24.89
2017-01-09T01:15:25.772Z,24.86
2017-01-09T01:15:40.626Z,24.74
2017-01-09T01:15:55.445Z,24.7
2017-01-09T01:16:10.287Z,24.74
2017-01-09T01:16:25.127Z,24.77
2017-01-09T01:16:39.961Z,24.69
2017-01-09T01:16:54.698Z,24.7
2017-01-09T01:17:09.552Z,24.69
2017-01-09T01:17:24.352Z,24.63
2017-01-09T01:17:39.219Z,24.71
2017-01-09T01:17:54.030Z,24.69
2017-01-09T01:18:08.899Z,24.71
2017-01-09T01:18:23.828Z,24.78
2017-01-09T01:18:38.710Z,24.75
2017-01-09T01:18:53.562Z,24.74
2017-01-09T01:19:08.389Z,24.78
2017-01-09T01:19:23.240Z,24.74
2017-01-09T01:19:38.102Z,24.8
2017-01-09T01:19:52.869Z,24.75
2017-01-09T01:20:07.663Z,24.71
2017-01-09T01:20:23.147Z,24.75
2017-01-09T01:20:37.989Z,24.86
2017-01-09T01:20:52.882Z,24.87
2017-01-09T01:21:07.700Z,24.78
2017-01-09T01:21:22.467Z,24.75
2017-01-09T01:21:37.244Z,24.7
2017-01-09T01:21:52.335Z,24.71
2017-01-09T01:22:07.169Z,24.75
2017-01-09T01:22:21.949Z,24.75
2017-01-09T01:22:36.742Z,24.7
2017-01-09T01:22:51.567Z,24.66
2017-01-09T01:23:06.438Z,24.74
2017-01-09T01:23:21.291Z,24.7
2017-01-09T01:23:36.084Z,24.77
2017-01-09T01:23:50.900Z,24.69
2017-01-09T01:24:05.919Z,24.78
2017-01-09T01:24:20.696Z,24.74
2017-01-09T01:24:35.557Z,24.63
2017-01-09T01:24:50.578Z,24.67
2017-01-09T01:25:05.435Z,24.67
2017-01-09T01:25:20.282Z,24.66
2017-01-09T01:25:35.135Z,24.64
2017-01-09T01:25:49.991Z,24.66
2017-01-09T01:26:04.786Z,24.64
2017-01-09T01:26:19.627Z,24.59
2017-01-09T01:26:34.403Z,24.61
2017-01-09T01:26:49.283Z,24.59
2017-01-09T01:27:04.161Z,24.66
2017-01-09T01:27:19.023Z,24.55
2017-01-09T01:27:33.809Z,24.58
2017-01-09T01:27:48.695Z,24.55
2017-01-09T01:28:03.485Z,24.54
2017-01-09T01:28:18.279Z,24.63
2017-01-09T01:28:33.028Z,24.52
2017-01-09T01:28:47.875Z,24.54
2017-01-09T01:29:02.807Z,24.46
2017-01-09T01:29:17.559Z,24.51
2017-01-09T01:29:32.459Z,24.49
2017-01-09T01:29:47.312Z,24.49
2017-01-09T01:30:02.159Z,24.48
2017-01-09T01:30:17.003Z,24.48
2017-01-09T01:30:31.845Z,24.51
2017-01-09T01:30:46.647Z,24.52
2017-01-09T01:31:01.509Z,24.48
2017-01-09T01:31:16.349Z,24.44
2017-01-09T01:31:31.334Z,24.44
2017-01-09T01:31:46.154Z,24.36
2017-01-09T01:32:00.966Z,24.37
2017-01-09T01:32:15.802Z,24.37
2017-01-09T01:32:30.582Z,24.34
2017-01-09T01:32:45.335Z,24.45
2017-01-09T01:33:00.105Z,24.33
2017-01-09T01:33:14.924Z,24.26
2017-01-09T01:33:29.744Z,24.21
2017-01-09T01:33:44.531Z,24.21
2017-01-09T01:33:59.352Z,24.27
2017-01-09T01:34:14.231Z,24.19
2017-01-09T01:34:29.075Z,24.11
2017-01-09T01:34:43.894Z,24.17
2017-01-09T01:34:58.748Z,24.18
2017-01-09T01:35:13.672Z,24.12
2017-01-09T01:35:28.449Z,24.08
2017-01-09T01:35:43.302Z,24.08
2017-01-09T01:35:58.155Z,24
2017-01-09T01:36:13.027Z,24.07
2017-01-09T01:36:27.843Z,24.04
2017-01-09T01:36:42.644Z,23.93
2017-01-09T01:36:57.684Z,24.03
2017-01-09T01:37:12.478Z,23.99
2017-01-09T01:37:27.260Z,23.99
2017-01-09T01:37:42.113Z,23.96
2017-01-09T01:37:56.896Z,23.99
2017-01-09T01:38:11.772Z,23.94
2017-01-09T01:38:26.690Z,24
2017-01-09T01:38:41.500Z,23.96
2017-01-09T01:38:56.339Z,23.96
2017-01-09T01:39:11.079Z,23.97
2017-01-09T01:39:25.860Z,23.92
2017-01-09T01:39:40.709Z,23.93
2017-01-09T01:39:55.504Z,23.94
2017-01-09T01:40:10.298Z,23.99
2017-01-09T01:40:25.087Z,23.93
2017-01-09T01:40:39.889Z,23.97
2017-01-09T01:40:54.698Z,23.93
2017-01-09T01:41:09.557Z,23.94
2017-01-09T01:41:24.375Z,23.93
2017-01-09T01:41:39.195Z,23.85
2017-01-09T01:41:53.895Z,23.92
2017-01-09T01:42:08.674Z,23.87
2017-01-09T01:42:23.519Z,23.84
2017-01-09T01:42:38.356Z,23.89
2017-01-09T01:42:53.100Z,23.89
2017-01-09T01:43:07.854Z,23.87
2017-01-09T01:43:22.690Z,23.85
2017-01-09T01:43:37.443Z,23.87
2017-01-09T01:43:52.218Z,23.82
2017-01-09T01:44:07.106Z,23.89
2017-01-09T01:44:21.881Z,23.9
2017-01-09T01:44:36.728Z,23.87
2017-01-09T01:44:51.488Z,23.85
2017-01-09T01:45:06.400Z,23.84
2017-01-09T01:45:21.158Z,23.81
2017-01-09T01:45:36.057Z,23.74
2017-01-09T01:45:50.828Z,23.87
2017-01-09T01:46:05.625Z,23.85
2017-01-09T01:46:20.423Z,23.89
2017-01-09T01:46:35.208Z,23.87
2017-01-09T01:46:50.015Z,23.92
2017-01-09T01:47:04.820Z,23.87
2017-01-09T01:47:19.677Z,23.87
2017-01-09T01:47:34.485Z,23.93
2017-01-09T01:47:49.248Z,23.92
2017-01-09T01:48:03.984Z,23.92
2017-01-09T01:48:18.720Z,23.94
2017-01-09T01:48:33.616Z,23.9
2017-01-09T01:48:48.472Z,23.9
2017-01-09T01:49:03.280Z,23.84
2017-01-09T01:49:18.183Z,23.87
2017-01-09T01:49:33.052Z,23.82
2017-01-09T01:49:47.780Z,23.85
2017-01-09T01:50:02.581Z,23.87
2017-01-09T01:50:17.363Z,23.82
2017-01-09T01:50:32.331Z,23.89
2017-01-09T01:50:47.159Z,23.87
2017-01-09T01:51:01.989Z,23.89
2017-01-09T01:51:17.032Z,23.9
2017-01-09T01:51:31.763Z,23.77
2017-01-09T01:51:46.549Z,23.84
2017-01-09T01:52:01.337Z,23.87
2017-01-09T01:52:16.420Z,23.84
2017-01-09T01:52:31.325Z,23.87
2017-01-09T01:52:46.113Z,23.82
2017-01-09T01:53:00.932Z,23.82
2017-01-09T01:53:15.744Z,23.87
2017-01-09T01:53:30.557Z,23.9
2017-01-09T01:53:45.364Z,23.87
2017-01-09T01:54:00.144Z,23.96
2017-01-09T01:54:14.981Z,23.97
2017-01-09T01:54:29.833Z,23.99
2017-01-09T01:54:44.684Z,23.96
2017-01-09T01:54:59.437Z,23.96
2017-01-09T01:55:14.283Z,23.99
2017-01-09T01:55:29.104Z,24.02
2017-01-09T01:55:43.902Z,23.97
2017-01-09T01:55:58.671Z,23.99
2017-01-09T01:56:13.390Z,24.03
2017-01-09T01:56:28.180Z,23.9
2017-01-09T01:56:42.957Z,23.92
2017-01-09T01:56:57.758Z,23.89
2017-01-09T01:57:12.535Z,23.96
2017-01-09T01:57:27.356Z,23.9
2017-01-09T01:57:42.160Z,23.87
2017-01-09T01:57:57.014Z,23.94
2017-01-09T01:58:11.802Z,23.89
2017-01-09T01:58:26.555Z,23.92
2017-01-09T01:58:41.394Z,23.85
2017-01-09T01:58:56.205Z,23.9
2017-01-09T01:59:11.013Z,23.89
2017-01-09T01:59:25.828Z,23.92
2017-01-09T01:59:40.644Z,23.9
2017-01-09T01:59:55.540Z,23.94
2017-01-09T02:00:10.284Z,23.92
2017-01-09T02:00:25.081Z,23.96
2017-01-09T02:00:39.904Z,23.9
2017-01-09T02:00:54.713Z,23.94
2017-01-09T02:01:10.205Z,23.99
2017-01-09T02:01:25.074Z,23.96
2017-01-09T02:01:39.879Z,23.96
2017-01-09T02:01:54.738Z,23.9
2017-01-09T02:02:09.566Z,23.93
2017-01-09T02:02:24.375Z,23.97
2017-01-09T02:02:39.163Z,23.94
2017-01-09T02:02:53.982Z,23.87
2017-01-09T02:03:08.851Z,23.97
2017-01-09T02:03:23.651Z,23.93
2017-01-09T02:03:39.041Z,23.89
2017-01-09T02:03:53.913Z,23.87
2017-01-09T02:04:08.689Z,23.9
2017-01-09T02:04:23.579Z,23.82
2017-01-09T02:04:38.363Z,23.89
2017-01-09T02:04:53.217Z,23.89
2017-01-09T02:05:08.096Z,23.92
2017-01-09T02:05:22.951Z,24
2017-01-09T02:05:37.745Z,23.92
2017-01-09T02:05:52.577Z,24.03
2017-01-09T02:06:07.368Z,23.99
2017-01-09T02:06:22.374Z,24.08
2017-01-09T02:06:37.194Z,24.11
2017-01-09T02:06:51.988Z,24.04
2017-01-09T02:07:06.743Z,24.03
2017-01-09T02:07:21.846Z,24
2017-01-09T02:07:36.658Z,24.03
2017-01-09T02:07:51.498Z,23.99
2017-01-09T02:08:06.247Z,23.92
2017-01-09T02:08:21.016Z,24
2017-01-09T02:08:35.834Z,23.94
2017-01-09T02:08:50.659Z,23.93
2017-01-09T02:09:05.503Z,23.94
2017-01-09T02:09:20.328Z,23.92
2017-01-09T02:09:35.122Z,23.9
2017-01-09T02:09:50.006Z,23.92
2017-01-09T02:10:04.774Z,23.92
2017-01-09T02:10:19.688Z,23.9
2017-01-09T02:10:34.433Z,23.9
2017-01-09T02:10:49.325Z,23.79
2017-01-09T02:11:04.091Z,23.78
2017-01-09T02:11:18.933Z,23.78
2017-01-09T02:11:33.769Z,23.77
2017-01-09T02:11:48.590Z,23.81
2017-01-09T02:12:03.396Z,23.82
2017-01-09T02:12:18.191Z,23.84
2017-01-09T02:12:33.014Z,23.81
2017-01-09T02:12:47.799Z,23.81
2017-01-09T02:13:02.625Z,23.7
2017-01-09T02:13:17.454Z,23.72
2017-01-09T02:13:32.288Z,23.81
2017-01-09T02:13:47.152Z,23.81
2017-01-09T02:14:01.931Z,23.74
2017-01-09T02:14:16.730Z,23.75
2017-01-09T02:14:31.627Z,23.72
2017-01-09T02:14:46.593Z,23.77
2017-01-09T02:15:01.408Z,23.71
2017-01-09T02:15:16.215Z,23.78
2017-01-09T02:15:31.017Z,23.71
2017-01-09T02:15:45.796Z,23.71
2017-01-09T02:16:00.688Z,23.71
2017-01-09T02:16:15.471Z,23.71
2017-01-09T02:16:30.318Z,23.71
2017-01-09T02:16:45.087Z,23.7
2017-01-09T02:16:59.863Z,23.78
2017-01-09T02:17:14.654Z,23.77
2017-01-09T02:17:29.410Z,23.78
2017-01-09T02:17:44.219Z,23.74
2017-01-09T02:17:59.038Z,23.71
2017-01-09T02:18:13.857Z,23.78
2017-01-09T02:18:28.663Z,23.74
2017-01-09T02:18:43.474Z,23.78
2017-01-09T02:18:58.316Z,23.74
2017-01-09T02:19:13.145Z,23.71
2017-01-09T02:19:27.969Z,23.75
2017-01-09T02:19:43.480Z,23.67
2017-01-09T02:19:58.279Z,23.77
2017-01-09T02:20:13.076Z,23.7
2017-01-09T02:20:27.902Z,23.72
2017-01-09T02:20:42.692Z,23.66
2017-01-09T02:20:57.501Z,23.72
2017-01-09T02:21:12.326Z,23.63
2017-01-09T02:21:27.107Z,23.66
2017-01-09T02:21:41.875Z,23.63
2017-01-09T02:21:56.741Z,23.71
2017-01-09T02:22:11.594Z,23.67
2017-01-09T02:22:26.707Z,23.71
2017-01-09T02:22:41.585Z,23.64
2017-01-09T02:22:56.391Z,23.7
2017-01-09T02:23:11.205Z,23.59
2017-01-09T02:23:26.104Z,23.7
2017-01-09T02:23:40.872Z,23.63
2017-01-09T02:23:55.655Z,23.64
2017-01-09T02:24:10.449Z,23.63
2017-01-09T02:24:25.301Z,23.66
2017-01-09T02:24:40.157Z,23.63
2017-01-09T02:24:54.979Z,23.79
2017-01-09T02:25:09.784Z,23.74
2017-01-09T02:25:24.492Z,23.67
2017-01-09T02:25:39.341Z,23.72
2017-01-09T02:25:54.105Z,23.71
2017-01-09T02:26:08.941Z,23.67
2017-01-09T02:26:23.834Z,23.74
2017-01-09T02:26:38.629Z,23.64
2017-01-09T02:26:53.460Z,23.71
2017-01-09T02:27:08.249Z,23.72
2017-01-09T02:27:23.087Z,23.64
2017-01-09T02:27:37.838Z,23.6
2017-01-09T02:27:52.619Z,23.7
2017-01-09T02:28:07.404Z,23.78
2017-01-09T02:28:22.183Z,23.6
2017-01-09T02:28:36.986Z,23.75
2017-01-09T02:28:51.791Z,23.63
2017-01-09T02:29:06.635Z,23.66
2017-01-09T02:29:21.455Z,23.75
2017-01-09T02:29:36.244Z,23.64
2017-01-09T02:29:51.020Z,23.66
2017-01-09T02:30:05.782Z,23.67
2017-01-09T02:30:20.625Z,23.57
2017-01-09T02:30:35.485Z,23.64
2017-01-09T02:30:50.242Z,23.64
2017-01-09T02:31:05.022Z,23.63
2017-01-09T02:31:19.822Z,23.62
2017-01-09T02:31:34.543Z,23.72
2017-01-09T02:31:49.396Z,23.63
2017-01-09T02:32:04.197Z,23.67
2017-01-09T02:32:19.048Z,23.77
2017-01-09T02:32:33.882Z,23.77
2017-01-09T02:32:48.785Z,23.66
2017-01-09T02:33:03.641Z,23.72
2017-01-09T02:33:18.506Z,23.78
2017-01-09T02:33:33.302Z,23.67
2017-01-09T02:33:48.085Z,23.74
2017-01-09T02:34:02.914Z,23.74
2017-01-09T02:34:17.762Z,23.7
2017-01-09T02:34:32.549Z,23.71
2017-01-09T02:34:47.337Z,23.75
2017-01-09T02:35:02.077Z,23.75
2017-01-09T02:35:16.857Z,23.74
2017-01-09T02:35:31.832Z,23.75
2017-01-09T02:35:46.610Z,23.71
2017-01-09T02:36:01.375Z,23.77
2017-01-09T02:36:16.284Z,23.7
2017-01-09T02:36:31.013Z,23.75
2017-01-09T02:36:45.776Z,23.71
2017-01-09T02:37:00.599Z,23.71
2017-01-09T02:37:15.654Z,23.67
2017-01-09T02:37:30.749Z,23.67
2017-01-09T02:37:45.487Z,23.71
2017-01-09T02:38:00.318Z,23.72
2017-01-09T02:38:15.113Z,23.71
2017-01-09T02:38:29.881Z,23.77
2017-01-09T02:38:44.640Z,23.72
2017-01-09T02:38:59.450Z,23.74
2017-01-09T02:39:14.923Z,23.67
2017-01-09T02:39:29.773Z,23.78
2017-01-09T02:39:44.619Z,23.74
2017-01-09T02:39:59.414Z,23.75
2017-01-09T02:40:14.203Z,23.72
2017-01-09T02:40:29.027Z,23.74
2017-01-09T02:40:43.811Z,23.72
2017-01-09T02:40:58.605Z,23.59
2017-01-09T02:41:13.426Z,23.66
2017-01-09T02:41:28.252Z,23.67
2017-01-09T02:41:43.063Z,23.67
2017-01-09T02:41:57.882Z,23.77
2017-01-09T02:42:12.718Z,23.7
2017-01-09T02:42:27.569Z,23.74
2017-01-09T02:42:42.368Z,23.7
2017-01-09T02:42:57.190Z,23.78
2017-01-09T02:43:12.040Z,23.67
2017-01-09T02:43:26.777Z,23.71
2017-01-09T02:43:41.657Z,23.74
2017-01-09T02:43:56.459Z,23.74
2017-01-09T02:44:11.200Z,23.71
2017-01-09T02:44:25.946Z,23.71
2017-01-09T02:44:40.736Z,23.66
2017-01-09T02:44:55.472Z,23.7
2017-01-09T02:45:10.242Z,23.72
2017-01-09T02:45:25.027Z,23.77
2017-01-09T02:45:39.889Z,23.67
2017-01-09T02:45:54.750Z,23.63
2017-01-09T02:46:09.604Z,23.72
2017-01-09T02:46:24.387Z,23.72
2017-01-09T02:46:39.136Z,23.67
2017-01-09T02:46:53.961Z,23.71
2017-01-09T02:47:08.836Z,23.67
2017-01-09T02:47:23.596Z,23.81
2017-01-09T02:47:38.361Z,23.82
2017-01-09T02:47:53.184Z,23.72
2017-01-09T02:48:07.995Z,23.82
2017-01-09T02:48:22.974Z,23.81
2017-01-09T02:48:37.789Z,23.82
2017-01-09T02:48:52.649Z,23.84
2017-01-09T02:49:07.534Z,23.82
2017-01-09T02:49:22.328Z,23.81
2017-01-09T02:49:37.238Z,23.84
2017-01-09T02:49:52.026Z,23.81
2017-01-09T02:50:06.889Z,23.75
2017-01-09T02:50:21.776Z,23.82
2017-01-09T02:50:36.616Z,23.72
2017-01-09T02:50:51.526Z,23.75
2017-01-09T02:51:06.345Z,23.74
2017-01-09T02:51:21.139Z,23.74
2017-01-09T02:51:35.911Z,23.71
2017-01-09T02:51:50.784Z,23.74
2017-01-09T02:52:05.587Z,23.72
2017-01-09T02:52:20.464Z,23.74
2017-01-09T02:52:35.647Z,23.63
2017-01-09T02:52:50.448Z,23.75
2017-01-09T02:53:05.281Z,23.7
2017-01-09T02:53:20.074Z,23.71
2017-01-09T02:53:34.815Z,23.74
2017-01-09T02:53:49.553Z,23.67
2017-01-09T02:54:04.406Z,23.78
2017-01-09T02:54:19.236Z,23.71
2017-01-09T02:54:34.030Z,23.7
2017-01-09T02:54:48.881Z,23.77
2017-01-09T02:55:03.608Z,23.66
2017-01-09T02:55:18.396Z,23.75
2017-01-09T02:55:33.177Z,23.74
2017-01-09T02:55:47.960Z,23.72
2017-01-09T02:56:03.455Z,23.66
2017-01-09T02:56:18.262Z,23.71
2017-01-09T02:56:33.114Z,23.74
2017-01-09T02:56:47.976Z,23.72
2017-01-09T02:57:02.797Z,23.72
2017-01-09T02:57:17.607Z,23.64
2017-01-09T02:57:32.411Z,23.75
2017-01-09T02:57:47.297Z,23.74
2017-01-09T02:58:02.091Z,23.63
2017-01-09T02:58:16.912Z,23.66
2017-01-09T02:58:31.785Z,23.57
2017-01-09T02:58:46.608Z,23.64
2017-01-09T02:59:01.400Z,23.56
2017-01-09T02:59:16.226Z,23.66
2017-01-09T02:59:30.975Z,23.59
2017-01-09T02:59:45.761Z,23.62
2017-01-09T03:00:00.588Z,23.57
2017-01-09T03:00:15.392Z,23.48
2017-01-09T03:00:30.157Z,23.47
2017-01-09T03:00:44.990Z,23.55
2017-01-09T03:00:59.811Z,23.5
2017-01-09T03:01:14.612Z,23.48
2017-01-09T03:01:29.400Z,23.4
2017-01-09T03:01:44.235Z,23.45
2017-01-09T03:01:59.076Z,23.44
2017-01-09T03:02:13.911Z,23.37
2017-01-09T03:02:28.727Z,23.38
2017-01-09T03:02:43.491Z,23.38
2017-01-09T03:02:58.263Z,23.34
2017-01-09T03:03:13.052Z,23.37
2017-01-09T03:03:27.861Z,23.29
2017-01-09T03:03:42.691Z,23.26
2017-01-09T03:03:57.519Z,23.29
2017-01-09T03:04:12.310Z,23.25
2017-01-09T03:04:27.120Z,23.16
2017-01-09T03:04:41.955Z,23.22
2017-01-09T03:04:56.852Z,23.16
2017-01-09T03:05:11.638Z,23.29
2017-01-09T03:05:26.468Z,23.29
2017-01-09T03:05:41.314Z,23.26
2017-01-09T03:05:56.171Z,23.28
2017-01-09T03:06:11.002Z,23.29
2017-01-09T03:06:25.842Z,23.29
2017-01-09T03:06:40.627Z,23.34
2017-01-09T03:06:55.409Z,23.34
2017-01-09T03:07:10.207Z,23.35
2017-01-09T03:07:25.042Z,23.35
2017-01-09T03:07:40.083Z,23.37
2017-01-09T03:07:55.072Z,23.42
2017-01-09T03:08:09.842Z,23.35
2017-01-09T03:08:24.626Z,23.35
2017-01-09T03:08:39.458Z,23.35
2017-01-09T03:08:54.291Z,23.41
2017-01-09T03:09:09.278Z,23.45
2017-01-09T03:09:24.126Z,23.42
2017-01-09T03:09:38.888Z,23.41
2017-01-09T03:09:53.757Z,23.4
2017-01-09T03:10:08.584Z,23.4
2017-01-09T03:10:23.661Z,23.32
2017-01-09T03:10:38.443Z,23.4
2017-01-09T03:10:53.335Z,23.37
2017-01-09T03:11:08.074Z,23.42
2017-01-09T03:11:22.785Z,23.35
2017-01-09T03:11:37.805Z,23.38